Time;durP1;ratioP1;P1;durP2;ratioP2;P2;SDS_P1;SDS_P2;PMS_P1;PMS_P2;Temp;Humidity;BMP_temperature;BMP_pressure;BME280_temperature;BME280_humidity;BME280_pressure;Samples;Min_cycle;Max_cycle;Signal;HPM_P1;HPM_P2
2023/09/05 00:01:03;;;;;;;2.47;2.37;;;22.90;33.40;;;;;;20672;6865;117612;-73
2023/09/05 00:03:30;;;;;;;2.95;2.80;;;22.80;33.30;;;;;;20442;6866;343303;-73
2023/09/05 00:05:53;;;;;;;2.77;2.57;;;22.80;33.20;;;;;;20621;6866;127107;-73
2023/09/05 00:08:18;;;;;;;2.50;2.40;;;22.80;33.10;;;;;;20622;6866;120699;-73
2023/09/05 00:10:44;;;;;;;3.00;2.80;;;22.60;33.30;;;;;;20440;6866;309213;-73
2023/09/05 00:13:11;;;;;;;3.10;2.90;;;22.80;33.30;;;;;;20434;6866;300297;-73
2023/09/05 00:15:35;;;;;;;2.90;2.70;;;23.30;33.70;;;;;;20429;6866;311486;-73
2023/09/05 00:18:02;;;;;;;2.70;2.60;;;23.50;32.80;;;;;;20427;6866;289623;-73
2023/09/05 00:20:27;;;;;;;2.70;2.60;;;23.40;32.70;;;;;;20440;6866;311558;-73
2023/09/05 00:22:54;;;;;;;2.73;2.57;;;23.30;33.20;;;;;;20648;6866;117246;-73
2023/09/05 00:25:20;;;;;;;2.40;2.30;;;23.30;33.20;;;;;;20651;6866;117898;-73
2023/09/05 00:27:46;;;;;;;2.90;2.70;;;22.90;33.70;;;;;;20420;6866;309664;-73
2023/09/05 00:30:14;;;;;;;2.30;2.20;;;22.90;34.10;;;;;;20647;6866;118042;-73
2023/09/05 00:32:40;;;;;;;3.00;2.83;;;22.80;34.30;;;;;;20437;6866;309782;-73
2023/09/05 00:35:04;;;;;;;2.80;2.60;;;22.90;34.30;;;;;;20433;6866;280046;-73
2023/09/05 00:37:30;;;;;;;2.27;2.17;;;23.10;34.00;;;;;;20650;6867;117727;-73
2023/09/05 00:39:55;;;;;;;2.77;2.53;;;23.00;34.10;;;;;;20630;6867;124004;-72
2023/09/05 00:42:21;;;;;;;3.00;2.80;;;22.70;34.40;;;;;;20438;6867;314270;-73
2023/09/05 00:44:48;;;;;;;2.33;2.23;;;22.60;34.70;;;;;;20646;6867;117336;-73
2023/09/05 00:47:13;;;;;;;2.47;2.27;;;22.60;35.30;;;;;;20645;6867;122074;-73
2023/09/05 00:49:47;;;;;;;4.03;2.63;;;22.10;35.10;;;;;;20635;6867;121268;-73
2023/09/05 00:52:13;;;;;;;2.80;2.40;;;22.30;35.40;;;;;;20439;6867;279774;-73
2023/09/05 00:54:40;;;;;;;2.60;2.40;;;22.30;35.40;;;;;;20431;6867;310084;-73
2023/09/05 00:57:04;;;;;;;2.60;2.40;;;22.70;35.10;;;;;;20645;6867;117763;-74
2023/09/05 00:59:31;;;;;;;2.73;2.63;;;22.60;35.10;;;;;;20424;6867;312060;-72
2023/09/05 01:01:57;;;;;;;2.70;2.50;;;22.70;35.00;;;;;;20415;6867;303860;-73
2023/09/05 01:04:26;;;;;;;2.50;2.40;;;22.90;34.70;;;;;;20644;6867;118154;-73
2023/09/05 01:07:08;;;;;;;1.90;1.80;;;22.70;34.80;;;;;;20643;6867;117922;-73
2023/09/05 01:09:56;;;;;;;2.50;2.40;;;22.40;35.10;;;;;;20642;6867;117353;-72
2023/09/05 01:12:22;;;;;;;2.50;2.30;;;22.10;35.30;;;;;;20646;6865;117957;-74
2023/09/05 01:14:47;;;;;;;2.73;2.50;;;21.90;35.60;;;;;;20649;6866;117811;-74
2023/09/05 01:17:13;;;;;;;2.40;2.30;;;21.80;35.80;;;;;;20656;6866;117781;-73
2023/09/05 01:19:38;;;;;;;2.72;2.58;;;21.70;35.90;;;;;;20413;6866;309647;-75
2023/09/05 01:22:24;;;;;;;2.23;2.13;;;21.90;35.90;;;;;;20643;6866;117552;-73
2023/09/05 01:24:49;;;;;;;2.80;2.60;;;21.90;35.70;;;;;;20416;6866;344516;-74
2023/09/05 01:27:19;;;;;;;2.70;2.50;;;22.20;35.40;;;;;;20644;6866;120255;-74
2023/09/05 01:29:45;;;;;;;2.40;2.20;;;22.20;35.40;;;;;;20619;6866;123172;-73
2023/09/05 01:32:11;;;;;;;2.43;2.30;;;21.80;35.70;;;;;;20644;6866;122999;-73
2023/09/05 01:34:37;;;;;;;2.53;2.37;;;21.80;35.70;;;;;;20428;6866;310226;-73
2023/09/05 01:37:04;;;;;;;2.25;2.15;;;22.00;35.80;;;;;;20647;6866;117571;-73
2023/09/05 01:39:29;;;;;;;2.60;2.40;;;22.00;35.70;;;;;;20431;6866;309238;-73
2023/09/05 01:41:55;;;;;;;2.50;2.30;;;22.20;35.70;;;;;;20626;6866;117488;-73
2023/09/05 01:44:23;;;;;;;3.30;2.47;;;22.20;35.70;;;;;;20641;6866;117624;-73
2023/09/05 01:46:49;;;;;;;2.62;2.53;;;22.00;36.00;;;;;;20443;6866;309361;-73
2023/09/05 01:49:15;;;;;;;2.70;2.60;;;22.10;36.50;;;;;;20444;6867;310099;-74
2023/09/05 01:51:40;;;;;;;2.80;2.60;;;22.40;35.80;;;;;;20425;6867;319510;-73
2023/09/05 01:54:06;;;;;;;3.35;2.70;;;22.70;35.70;;;;;;20647;6867;118782;-73
2023/09/05 01:56:31;;;;;;;2.43;2.33;;;22.50;35.70;;;;;;20643;6867;117304;-74
2023/09/05 01:58:58;;;;;;;2.95;2.80;;;22.20;35.90;;;;;;20417;6867;281556;-73
2023/09/05 02:01:23;;;;;;;2.80;2.60;;;22.20;35.90;;;;;;20433;6867;340266;-73
2023/09/05 02:03:49;;;;;;;2.70;2.50;;;22.50;36.00;;;;;;20414;6867;311142;-73
2023/09/05 02:06:15;;;;;;;2.80;2.60;;;22.70;35.50;;;;;;20420;6867;279978;-73
2023/09/05 02:08:40;;;;;;;2.40;2.30;;;22.80;35.10;;;;;;20646;6867;118359;-73
2023/09/05 02:11:09;;;;;;;2.47;2.37;;;22.30;35.60;;;;;;20653;6867;123383;-73
2023/09/05 02:13:32;;;;;;;2.47;2.37;;;22.30;35.60;;;;;;20646;6867;117265;-73
2023/09/05 03:45:13;;;;;;;2.93;2.73;;;22.70;37.50;;;;;;21529;6514;83954;-74
2023/09/05 03:47:40;;;;;;;3.10;2.90;;;22.20;38.40;;;;;;21228;6599;312887;-74
2023/09/05 03:50:05;;;;;;;3.03;2.72;;;22.10;38.30;;;;;;21162;6584;279424;-73
2023/09/05 03:52:31;;;;;;;2.73;2.63;;;22.20;38.20;;;;;;20965;6651;309939;-73
2023/09/05 03:54:56;;;;;;;2.30;2.20;;;22.30;38.40;;;;;;21288;6636;70338;-74
2023/09/05 03:57:22;;;;;;;3.23;3.03;;;22.00;38.60;;;;;;21042;6651;301548;-73
2023/09/05 03:59:47;;;;;;;3.03;2.83;;;21.90;39.10;;;;;;21139;6623;299846;-73
2023/09/05 04:02:13;;;;;;;3.50;3.20;;;22.00;39.20;;;;;;21131;6623;307580;-74
2023/09/05 04:04:39;;;;;;;3.20;3.00;;;22.00;39.10;;;;;;21361;6623;66630;-73
2023/09/05 04:07:05;;;;;;;3.13;2.83;;;21.30;39.80;;;;;;21362;6623;68092;-74
2023/09/05 04:09:30;;;;;;;3.62;3.33;;;21.30;39.70;;;;;;20900;6651;300414;-74
2023/09/05 04:11:57;;;;;;;2.97;2.87;;;21.30;40.40;;;;;;21117;6623;271648;-74
2023/09/05 04:14:23;;;;;;;3.50;3.20;;;21.50;40.30;;;;;;21058;6623;334376;-74
2023/09/05 04:16:49;;;;;;;3.10;2.90;;;21.60;40.00;;;;;;21294;6623;72863;-74
2023/09/05 04:19:14;;;;;;;3.10;2.75;;;21.40;40.10;;;;;;21157;6651;68976;-73
2023/09/05 04:21:40;;;;;;;3.17;2.97;;;21.00;40.50;;;;;;20967;6623;274870;-74
2023/09/05 04:24:06;;;;;;;3.55;3.25;;;21.00;41.00;;;;;;20865;6623;328453;-73
2023/09/05 04:26:33;;;;;;;3.03;2.83;;;21.30;41.10;;;;;;20972;6651;65312;-74
2023/09/05 04:28:57;;;;;;;3.12;2.92;;;21.00;40.90;;;;;;20936;6623;310023;-74
2023/09/05 04:31:23;;;;;;;2.87;2.67;;;20.90;41.50;;;;;;21230;6651;65847;-79
2023/09/05 04:33:50;;;;;;;4.63;2.47;;;20.90;41.50;;;;;;21352;6623;66511;-74
2023/09/05 04:36:14;;;;;;;3.20;3.00;;;20.60;41.70;;;;;;21019;6651;338403;-74
2023/09/05 04:38:41;;;;;;;2.83;2.72;;;20.70;42.10;;;;;;21370;6623;65373;-74
2023/09/05 04:41:07;;;;;;;3.13;2.93;;;20.60;42.00;;;;;;21282;6651;66858;-74
2023/09/05 04:43:31;;;;;;;3.13;2.93;;;20.30;42.10;;;;;;21137;6623;316436;-74
2023/09/05 04:45:57;;;;;;;4.93;2.78;;;20.50;42.60;;;;;;21349;6623;70218;-74
2023/09/05 04:48:22;;;;;;;2.93;2.73;;;20.40;42.50;;;;;;21243;6651;72046;-73
2023/09/05 04:50:48;;;;;;;3.50;3.30;;;20.20;42.70;;;;;;21117;6623;271064;-73
2023/09/05 04:53:13;;;;;;;3.40;3.20;;;20.30;42.90;;;;;;20980;6651;338465;-74
2023/09/05 04:55:44;;;;;;;2.90;2.70;;;20.60;42.50;;;;;;21294;6621;66676;-74
2023/09/05 04:58:12;;;;;;;2.73;2.53;;;20.50;42.30;;;;;;21337;6623;67195;-75
2023/09/05 05:00:36;;;;;;;3.25;3.05;;;20.30;42.60;;;;;;21007;6651;330534;-75
2023/09/05 05:03:02;;;;;;;3.37;3.17;;;20.40;42.80;;;;;;21127;6623;270448;-75
2023/09/05 05:05:28;;;;;;;3.10;2.90;;;20.70;42.50;;;;;;21025;6651;327468;-75
2023/09/05 05:07:54;;;;;;;2.67;2.57;;;21.00;42.70;;;;;;21349;6623;76994;-74
2023/09/05 05:10:20;;;;;;;3.00;2.80;;;20.80;42.50;;;;;;21116;6623;301032;-75
2023/09/05 05:12:45;;;;;;;3.10;2.90;;;20.90;41.90;;;;;;21123;6623;311773;-75
2023/09/05 05:15:11;;;;;;;2.47;2.27;;;21.10;41.80;;;;;;21274;6651;65452;-77
2023/09/05 05:17:37;;;;;;;2.90;2.70;;;20.90;41.60;;;;;;21129;6623;298818;-76
2023/09/05 05:20:05;;;;;;;2.60;2.40;;;20.90;41.50;;;;;;21228;6623;70812;-81
2023/09/05 05:22:30;;;;;;;2.63;2.43;;;20.80;41.50;;;;;;21244;6651;67997;-71
2023/09/05 05:24:57;;;;;;;2.80;2.70;;;20.50;41.70;;;;;;21109;6623;301039;-72
2023/09/05 05:27:23;;;;;;;2.60;2.50;;;20.60;42.00;;;;;;20990;6651;299608;-74
2023/09/05 05:29:55;;;;;;;2.70;2.50;;;20.90;41.70;;;;;;21090;6623;317980;-73
2023/09/05 05:32:24;;;;;;;2.53;2.40;;;21.20;40.60;;;;;;20962;6651;303368;-73
2023/09/05 05:35:08;;;;;;;2.65;2.55;;;21.40;40.50;;;;;;21120;6623;334510;-74
2023/09/05 05:37:33;;;;;;;2.50;2.30;;;21.60;40.30;;;;;;21225;6651;66447;-73
2023/09/05 05:39:59;;;;;;;2.67;2.57;;;21.30;40.30;;;;;;21067;6623;279376;-76
2023/09/05 05:42:25;;;;;;;2.30;2.20;;;21.20;40.80;;;;;;21219;6651;66330;-76
2023/09/05 05:44:51;;;;;;;2.58;2.47;;;21.10;40.70;;;;;;21122;6623;317383;-75
2023/09/05 05:47:16;;;;;;;2.97;2.67;;;21.20;41.10;;;;;;21115;6623;291411;-74
2023/09/05 05:49:42;;;;;;;2.58;2.40;;;21.40;40.40;;;;;;21006;6651;300969;-75
2023/09/05 05:52:10;;;;;;;2.70;2.50;;;21.60;40.00;;;;;;21121;6623;270728;-77
2023/09/05 05:54:33;;;;;;;2.47;2.37;;;21.80;40.10;;;;;;21114;6623;327551;-77
2023/09/05 05:56:59;;;;;;;2.60;2.40;;;21.90;39.70;;;;;;21110;6623;308848;-77
2023/09/05 05:59:24;;;;;;;2.40;2.30;;;22.00;39.70;;;;;;21243;6651;67354;-75
2023/09/05 06:01:52;;;;;;;2.50;2.40;;;21.80;40.00;;;;;;21131;6623;271459;-75
2023/09/05 06:04:17;;;;;;;2.80;2.60;;;21.70;40.00;;;;;;21016;6651;330160;-76
2023/09/05 06:06:42;;;;;;;2.60;2.10;;;21.90;40.00;;;;;;21352;6622;66068;-76
2023/09/05 06:09:08;;;;;;;2.65;2.45;;;21.70;40.00;;;;;;21042;6651;301836;-73
2023/09/05 06:11:33;;;;;;;2.60;2.50;;;21.80;40.10;;;;;;21114;6623;312834;-74
2023/09/05 06:13:59;;;;;;;2.57;2.37;;;22.10;40.20;;;;;;21110;6623;299689;-74
2023/09/05 06:16:25;;;;;;;2.40;2.30;;;22.50;39.80;;;;;;21342;6623;66566;-74
2023/09/05 06:18:50;;;;;;;2.33;2.23;;;22.50;39.80;;;;;;21241;6651;67510;-73
2023/09/05 06:21:16;;;;;;;2.67;2.47;;;22.40;40.20;;;;;;21118;6623;302420;-73
2023/09/05 06:23:41;;;;;;;2.55;2.35;;;22.70;39.70;;;;;;21024;6651;301721;-75
2023/09/05 06:26:08;;;;;;;2.40;2.20;;;23.10;39.20;;;;;;21335;6623;69528;-74
2023/09/05 06:28:34;;;;;;;2.57;2.47;;;23.10;39.20;;;;;;21091;6623;302990;-78
2023/09/05 06:30:59;;;;;;;2.97;2.77;;;23.30;38.60;;;;;;21349;6623;65891;-71
2023/09/05 06:33:26;;;;;;;2.67;2.55;;;23.30;38.80;;;;;;21032;6651;273757;-75
2023/09/05 06:35:51;;;;;;;2.60;2.40;;;23.60;39.20;;;;;;21092;6623;288797;-74
2023/09/05 06:38:17;;;;;;;2.70;2.50;;;23.60;38.70;;;;;;20999;6651;272044;-77
2023/09/05 06:40:43;;;;;;;2.43;2.27;;;23.80;37.90;;;;;;21344;6623;67679;-77
2023/09/05 06:43:09;;;;;;;2.43;2.23;;;23.80;37.90;;;;;;21312;6623;79218;-75
2023/09/05 06:45:34;;;;;;;2.22;2.10;;;23.60;38.50;;;;;;21237;6651;65772;-74
2023/09/05 06:48:00;;;;;;;2.50;2.30;;;23.40;38.80;;;;;;21041;6623;301018;-73
2023/09/05 06:50:25;;;;;;;2.50;2.40;;;23.60;38.80;;;;;;21009;6651;336485;-76
2023/09/05 06:52:53;;;;;;;2.40;2.20;;;24.00;38.20;;;;;;21341;6623;65639;-74
2023/09/05 06:55:19;;;;;;;2.90;2.70;;;24.00;38.20;;;;;;21132;6623;328663;-76
2023/09/05 06:57:46;;;;;;;2.53;2.43;;;24.20;38.40;;;;;;21308;6622;70962;-75
2023/09/05 07:00:11;;;;;;;2.83;2.30;;;24.10;38.80;;;;;;21250;6651;66035;-75
2023/09/05 07:02:38;;;;;;;2.20;2.00;;;24.10;38.80;;;;;;21305;6636;73304;-81
2023/09/05 07:05:03;;;;;;;2.50;2.40;;;24.00;39.20;;;;;;21251;6651;65392;-78
2023/09/05 07:07:29;;;;;;;2.80;2.60;;;24.10;40.00;;;;;;21095;6636;300506;-75
2023/09/05 07:09:55;;;;;;;2.50;2.30;;;24.50;39.60;;;;;;21091;6636;272823;-82
2023/09/05 07:12:22;;;;;;;2.53;2.30;;;25.10;37.80;;;;;;21300;6636;66666;-80
2023/09/05 07:14:47;;;;;;;2.63;2.47;;;25.20;37.70;;;;;;21284;6651;66808;-74
2023/09/05 07:17:14;;;;;;;3.22;2.40;;;25.40;37.20;;;;;;21043;6653;308658;-75
2023/09/05 11:40:30;;;;;;;1.70;1.60;;;30.50;32.50;;;;;;21445;6487;268998;31
2023/09/05 11:43:03;;;;;;;1.60;1.50;;;30.70;30.90;;;;;;21576;6585;66263;31
2023/09/05 11:45:27;;;;;;;1.63;1.30;;;30.80;30.70;;;;;;21533;6584;66010;31
2023/09/05 11:47:53;;;;;;;1.83;1.70;;;30.80;30.70;;;;;;21412;6640;72550;31
2023/09/05 11:50:19;;;;;;;1.53;1.53;;;30.80;30.80;;;;;;21411;6640;65899;31
2023/09/05 11:52:45;;;;;;;1.73;1.60;;;30.80;31.10;;;;;;21406;6640;65745;31
2023/09/05 11:55:11;;;;;;;1.70;1.60;;;30.80;31.10;;;;;;21185;6640;332214;31
2023/09/05 11:57:39;;;;;;;1.87;1.77;;;31.00;30.20;;;;;;21395;6640;65306;31
2023/09/05 12:00:16;;;;;;;1.77;1.67;;;31.10;30.30;;;;;;21099;6711;67881;31
2023/09/05 12:02:29;;;;;;;1.80;1.70;;;31.00;30.70;;;;;;20926;6713;306016;31
2023/09/05 12:04:56;;;;;;;1.80;1.50;;;31.20;30.70;;;;;;21165;6713;66634;31
2023/09/05 12:07:24;;;;;;;1.55;1.42;;;31.30;30.30;;;;;;20957;6711;305244;31
2023/09/05 12:09:50;;;;;;;1.60;1.50;;;31.50;30.00;;;;;;20972;6711;274914;31
2023/09/05 12:12:18;;;;;;;3.07;1.57;;;31.70;29.90;;;;;;21176;6711;65721;31
2023/09/05 12:14:48;;;;;;;1.77;1.50;;;31.70;29.80;;;;;;20960;6711;305128;31
2023/09/05 12:17:16;;;;;;;1.70;1.60;;;31.80;30.00;;;;;;21176;6711;69944;31
2023/09/05 12:19:42;;;;;;;2.10;1.50;;;31.60;29.90;;;;;;20967;6711;274781;31
2023/09/05 12:22:07;;;;;;;1.80;1.70;;;31.70;30.10;;;;;;20966;6713;329402;31
2023/09/05 12:24:33;;;;;;;1.83;1.73;;;31.80;29.70;;;;;;21195;6711;73035;31
2023/09/05 12:27:00;;;;;;;1.50;1.40;;;31.80;30.00;;;;;;20962;6711;307662;31
2023/09/05 12:29:37;;;;;;;1.37;1.27;;;31.80;30.00;;;;;;21178;6711;65638;31
2023/09/05 12:32:05;;;;;;;1.83;1.70;;;31.70;30.50;;;;;;20967;6711;289035;31
2023/09/05 12:34:29;;;;;;;1.60;1.50;;;31.70;30.10;;;;;;21005;6698;303643;31
2023/09/05 12:36:55;;;;;;;1.67;1.57;;;31.90;29.90;;;;;;21186;6711;65693;31
2023/09/05 12:39:21;;;;;;;1.80;1.70;;;31.70;29.90;;;;;;20976;6711;276766;31
2023/09/05 12:41:46;;;;;;;1.70;1.60;;;31.80;30.30;;;;;;21181;6711;67224;31
2023/09/05 12:44:12;;;;;;;3.63;1.80;;;31.80;30.10;;;;;;21182;6711;66131;31
2023/09/05 12:46:37;;;;;;;1.65;1.55;;;31.60;30.20;;;;;;20969;6711;305685;31
2023/09/05 12:49:03;;;;;;;1.90;1.80;;;31.60;30.70;;;;;;21187;6711;66676;31
2023/09/05 12:51:30;;;;;;;1.80;1.70;;;31.60;30.40;;;;;;20983;6710;275457;31
2023/09/05 12:53:54;;;;;;;1.90;1.80;;;31.60;30.00;;;;;;20978;6711;304918;31
2023/09/05 12:56:20;;;;;;;1.77;1.60;;;31.70;30.80;;;;;;20983;6711;275256;31
2023/09/05 12:58:45;;;;;;;1.60;1.50;;;31.80;29.70;;;;;;21199;6711;66133;31
2023/09/05 13:01:14;;;;;;;1.77;1.67;;;31.70;29.80;;;;;;21180;6711;66740;31
2023/09/05 13:03:38;;;;;;;1.70;1.60;;;31.30;30.00;;;;;;20967;6711;274142;31
2023/09/05 13:06:03;;;;;;;2.47;1.40;;;31.40;30.10;;;;;;21187;6711;66405;31
2023/09/05 13:08:29;;;;;;;1.73;1.63;;;31.30;30.30;;;;;;21191;6711;66851;31
2023/09/05 13:10:54;;;;;;;1.83;1.60;;;31.10;30.70;;;;;;20979;6711;278214;31
2023/09/05 13:13:20;;;;;;;1.70;1.60;;;31.20;31.20;;;;;;20958;6713;276219;31
2023/09/05 13:15:45;;;;;;;2.10;1.77;;;31.50;31.40;;;;;;20975;6711;274975;31
2023/09/05 13:18:11;;;;;;;2.55;1.75;;;31.70;29.90;;;;;;20971;6711;304132;31
2023/09/05 13:20:37;;;;;;;1.60;1.50;;;31.80;30.00;;;;;;20960;6711;277358;31
2023/09/05 13:23:02;;;;;;;2.07;1.73;;;31.90;30.60;;;;;;20974;6711;275314;31
2023/09/05 13:25:32;;;;;;;2.00;1.40;;;32.00;30.40;;;;;;20975;6711;304959;31
2023/09/05 13:27:56;;;;;;;1.57;1.50;;;32.10;30.60;;;;;;21180;6711;66086;31
2023/09/05 13:30:22;;;;;;;1.67;1.57;;;31.80;30.60;;;;;;21213;6711;68990;31
2023/09/05 13:32:47;;;;;;;1.80;1.70;;;31.50;30.90;;;;;;20975;6711;305522;31
2023/09/05 13:35:13;;;;;;;2.10;1.43;;;31.40;30.90;;;;;;21172;6711;91596;31
2023/09/05 13:37:38;;;;;;;1.90;1.60;;;31.30;31.00;;;;;;21183;6711;72469;31
2023/09/05 13:40:04;;;;;;;1.60;1.50;;;31.00;31.30;;;;;;20975;6711;274445;31
2023/09/05 13:42:30;;;;;;;1.50;1.50;;;31.10;31.40;;;;;;21181;6713;66398;31
2023/09/05 13:44:55;;;;;;;1.62;1.50;;;31.00;31.30;;;;;;20981;6713;303919;31
2023/09/05 13:47:22;;;;;;;1.80;1.60;;;31.10;31.60;;;;;;20978;6711;274308;31
2023/09/05 13:49:47;;;;;;;1.80;1.70;;;31.40;31.40;;;;;;20966;6711;275258;31
2023/09/05 13:52:13;;;;;;;1.77;1.67;;;31.60;31.10;;;;;;20964;6711;305571;31
2023/09/05 13:54:40;;;;;;;1.80;1.70;;;31.70;31.30;;;;;;20968;6711;276424;31
2023/09/05 13:57:07;;;;;;;2.03;1.60;;;31.70;31.30;;;;;;20970;6711;282236;31
2023/09/05 13:59:31;;;;;;;1.70;1.60;;;31.80;30.90;;;;;;20966;6711;275003;31
2023/09/05 14:01:57;;;;;;;1.70;1.60;;;31.90;30.90;;;;;;20974;6709;302589;31
2023/09/05 14:04:22;;;;;;;1.53;1.10;;;32.00;30.80;;;;;;21181;6711;67239;31
2023/09/05 14:06:49;;;;;;;2.03;1.60;;;31.70;30.90;;;;;;20937;6711;304362;31
2023/09/05 14:09:18;;;;;;;1.37;1.37;;;31.60;31.60;;;;;;20965;6711;315888;31
2023/09/05 14:11:44;;;;;;;1.70;1.60;;;31.70;31.30;;;;;;20933;6711;274945;31
2023/09/05 14:14:10;;;;;;;1.60;1.50;;;31.80;31.20;;;;;;20965;6711;275686;31
2023/09/05 14:16:35;;;;;;;1.52;1.42;;;31.90;31.00;;;;;;20968;6711;303433;31
2023/09/05 14:19:00;;;;;;;1.50;1.40;;;31.90;30.50;;;;;;21181;6711;69609;31
2023/09/05 14:21:26;;;;;;;1.50;1.40;;;31.70;30.80;;;;;;20963;6711;274969;31
2023/09/05 14:23:52;;;;;;;1.80;1.70;;;31.60;31.70;;;;;;20959;6711;276368;31
2023/09/05 14:26:17;;;;;;;1.60;1.50;;;31.60;31.70;;;;;;20964;6711;304032;31
2023/09/05 14:28:46;;;;;;;1.80;1.70;;;31.80;30.90;;;;;;21189;6711;65627;31
2023/09/05 14:31:11;;;;;;;2.42;1.50;;;31.60;31.20;;;;;;20971;6711;304644;31
2023/09/05 14:33:37;;;;;;;1.70;1.60;;;31.60;31.40;;;;;;20970;6711;304064;31
2023/09/05 14:36:03;;;;;;;1.60;1.60;;;31.60;30.80;;;;;;21189;6711;66130;31
2023/09/05 14:38:29;;;;;;;1.47;1.37;;;31.40;31.10;;;;;;21175;6713;66206;31
2023/09/05 14:40:55;;;;;;;1.70;1.60;;;31.10;31.40;;;;;;20974;6713;291444;31
2023/09/05 14:43:23;;;;;;;1.57;1.47;;;31.10;31.60;;;;;;21018;6698;293866;31
2023/09/05 14:45:46;;;;;;;2.03;1.65;;;31.30;31.30;;;;;;20969;6711;288504;31
2023/09/05 14:48:12;;;;;;;1.80;1.70;;;31.40;31.50;;;;;;21194;6711;67187;31
2023/09/05 14:50:37;;;;;;;2.10;1.70;;;31.20;31.50;;;;;;20978;6711;275745;31
2023/09/05 14:53:03;;;;;;;1.70;1.60;;;31.20;31.60;;;;;;20976;6711;274352;31
2023/09/05 14:55:29;;;;;;;2.00;1.73;;;31.30;31.70;;;;;;20966;6711;303953;31
2023/09/05 14:57:54;;;;;;;2.17;1.53;;;31.40;31.50;;;;;;21187;6711;66322;31
2023/09/05 15:00:20;;;;;;;1.80;1.70;;;31.10;31.60;;;;;;21181;6711;70325;31
2023/09/05 15:02:45;;;;;;;4.83;1.73;;;30.70;32.00;;;;;;21183;6711;65980;31
2023/09/05 15:05:11;;;;;;;1.95;1.70;;;30.40;32.40;;;;;;20960;6711;303919;31
2023/09/05 15:07:37;;;;;;;2.60;1.50;;;30.50;32.70;;;;;;21168;6711;66177;31
2023/09/05 15:10:02;;;;;;;2.07;1.80;;;30.40;32.60;;;;;;21184;6711;66172;31
2023/09/05 15:12:28;;;;;;;1.70;1.60;;;30.20;32.80;;;;;;21180;6711;66131;31
2023/09/05 15:14:53;;;;;;;3.53;1.60;;;29.90;33.00;;;;;;21185;6710;66195;31
2023/09/05 15:17:19;;;;;;;2.17;2.07;;;29.70;33.30;;;;;;21173;6711;66421;31
2023/09/05 15:19:44;;;;;;;2.45;2.25;;;29.60;33.60;;;;;;20975;6711;274119;31
2023/09/05 15:22:10;;;;;;;1.80;1.70;;;29.80;33.50;;;;;;21190;6711;67422;31
2023/09/05 15:24:36;;;;;;;1.83;1.73;;;29.90;33.50;;;;;;20973;6711;303600;31
2023/09/05 15:27:01;;;;;;;1.52;1.52;;;30.00;33.90;;;;;;21192;6711;66075;31
2023/09/05 15:29:27;;;;;;;2.90;1.87;;;30.00;33.70;;;;;;20975;6711;306959;31
2023/09/05 15:31:52;;;;;;;2.05;1.95;;;30.10;33.50;;;;;;21195;6711;68337;31
2023/09/05 15:34:18;;;;;;;1.83;1.73;;;30.00;33.40;;;;;;20976;6711;276166;31
2023/09/05 15:36:45;;;;;;;1.80;1.70;;;30.00;33.60;;;;;;20978;6711;275980;31
2023/09/05 15:39:10;;;;;;;2.00;1.90;;;30.20;33.30;;;;;;21178;6711;66073;31
2023/09/05 15:41:36;;;;;;;3.40;1.90;;;30.10;33.30;;;;;;21186;6711;67607;31
2023/09/05 15:44:01;;;;;;;1.90;1.80;;;29.80;33.40;;;;;;21192;6711;66534;31
2023/09/05 15:46:27;;;;;;;2.10;1.93;;;29.50;33.80;;;;;;20970;6711;275122;31
2023/09/05 15:48:53;;;;;;;2.97;2.53;;;29.60;34.30;;;;;;20956;6711;306476;31
2023/09/05 15:51:21;;;;;;;2.35;2.17;;;29.90;33.90;;;;;;20975;6711;304886;31
2023/09/05 15:53:46;;;;;;;1.63;1.53;;;30.10;33.50;;;;;;21182;6713;66500;31
2023/09/05 15:56:12;;;;;;;2.40;2.00;;;29.90;33.40;;;;;;21184;6711;66590;31
2023/09/05 15:58:40;;;;;;;1.80;1.70;;;29.50;33.70;;;;;;20967;6711;273985;31
2023/09/05 16:01:03;;;;;;;1.92;1.83;;;29.60;34.20;;;;;;20969;6711;274725;31
2023/09/05 16:03:29;;;;;;;3.83;3.50;;;29.80;33.90;;;;;;21184;6711;67853;31
2023/09/05 16:05:56;;;;;;;2.23;2.13;;;29.60;33.90;;;;;;21195;6711;67098;31
2023/09/05 16:08:20;;;;;;;3.80;2.00;;;29.40;34.40;;;;;;20947;6713;274720;31
2023/09/05 16:10:49;;;;;;;2.33;2.10;;;29.40;34.90;;;;;;20973;6713;274421;31
2023/09/05 16:13:12;;;;;;;2.40;2.30;;;29.60;34.40;;;;;;20973;6711;279945;31
2023/09/05 16:15:38;;;;;;;1.80;1.70;;;29.80;34.00;;;;;;21187;6711;66380;31
2023/09/05 16:18:03;;;;;;;2.10;1.83;;;29.50;34.00;;;;;;20954;6711;286957;31
2023/09/05 16:20:29;;;;;;;1.77;1.70;;;29.50;34.80;;;;;;21190;6711;68521;31
2023/09/05 16:22:55;;;;;;;1.90;1.80;;;29.30;34.70;;;;;;20973;6711;305642;31
2023/09/05 16:25:20;;;;;;;2.10;1.90;;;29.30;35.00;;;;;;20973;6710;305041;31
2023/09/05 16:27:46;;;;;;;2.70;2.07;;;29.50;34.70;;;;;;21184;6711;66424;31
2023/09/05 16:30:11;;;;;;;2.10;2.00;;;29.30;34.70;;;;;;21187;6711;66476;31
2023/09/05 16:32:37;;;;;;;3.10;1.93;;;28.90;35.10;;;;;;21185;6711;68559;31
2023/09/05 16:35:08;;;;;;;2.40;2.00;;;28.70;35.50;;;;;;20973;6711;304546;31
2023/09/05 16:37:34;;;;;;;1.97;1.87;;;28.70;35.90;;;;;;21235;6698;67254;31
2023/09/05 16:39:59;;;;;;;2.10;1.90;;;28.60;35.80;;;;;;21185;6711;72613;31
2023/09/05 16:42:25;;;;;;;1.80;1.70;;;28.40;36.10;;;;;;21182;6711;65629;31
2023/09/05 16:44:50;;;;;;;2.40;1.80;;;28.20;36.20;;;;;;21187;6711;66866;31
2023/09/05 16:47:16;;;;;;;1.87;1.70;;;28.00;36.50;;;;;;21150;6711;65633;31
2023/09/05 16:49:41;;;;;;;3.37;3.07;;;27.80;36.60;;;;;;21166;6711;66132;31
2023/09/05 16:52:07;;;;;;;2.80;2.70;;;27.70;36.80;;;;;;21181;6711;67817;31
2023/09/05 16:54:32;;;;;;;2.12;1.92;;;27.50;36.90;;;;;;20962;6711;305685;31
2023/09/05 16:56:58;;;;;;;3.42;3.22;;;27.80;37.10;;;;;;20966;6711;303831;31
2023/09/05 16:59:23;;;;;;;2.33;2.23;;;28.10;36.30;;;;;;21186;6711;65747;31
2023/09/05 17:01:52;;;;;;;2.20;2.10;;;28.10;36.10;;;;;;20960;6711;305470;31
2023/09/05 17:04:18;;;;;;;1.80;1.70;;;28.20;36.20;;;;;;21154;6711;67184;31
2023/09/05 17:06:42;;;;;;;2.10;2.00;;;28.10;36.20;;;;;;20929;6713;333372;31
2023/09/05 17:09:08;;;;;;;1.90;1.80;;;28.20;36.50;;;;;;21171;6711;66384;31
2023/09/05 17:11:33;;;;;;;2.20;2.00;;;28.10;36.40;;;;;;20946;6711;304975;31
2023/09/05 17:14:00;;;;;;;1.90;1.77;;;28.10;36.60;;;;;;21185;6711;65832;31
2023/09/05 17:16:24;;;;;;;2.42;2.22;;;28.00;36.70;;;;;;21187;6711;73297;31
2023/09/05 17:18:50;;;;;;;2.28;2.17;;;27.70;37.00;;;;;;21200;6711;69545;31
2023/09/05 17:21:16;;;;;;;2.53;2.40;;;27.50;37.30;;;;;;21180;6711;66909;31
2023/09/05 17:23:41;;;;;;;1.90;1.80;;;27.30;37.90;;;;;;21182;6711;65915;31
2023/09/05 17:26:07;;;;;;;2.33;2.22;;;27.10;37.90;;;;;;21184;6713;70677;31
2023/09/05 17:28:34;;;;;;;2.12;2.03;;;26.90;38.20;;;;;;20962;6711;305587;31
2023/09/05 17:30:59;;;;;;;2.13;2.00;;;27.10;38.70;;;;;;21176;6711;65966;31
2023/09/05 17:33:24;;;;;;;3.13;2.30;;;27.20;38.40;;;;;;21175;6711;66106;31
2023/09/05 17:35:50;;;;;;;3.08;2.80;;;27.00;38.60;;;;;;20955;6711;304865;31
2023/09/05 17:38:16;;;;;;;2.60;2.40;;;27.10;39.20;;;;;;20965;6710;303141;31
2023/09/05 17:40:44;;;;;;;2.63;2.53;;;27.40;38.90;;;;;;21162;6711;67158;31
2023/09/05 17:43:07;;;;;;;2.90;2.73;;;27.30;38.70;;;;;;21140;6711;66098;31
2023/09/05 17:45:34;;;;;;;4.20;4.00;;;27.00;39.00;;;;;;21157;6711;66668;31
2023/09/05 17:48:00;;;;;;;4.20;3.90;;;26.80;39.40;;;;;;20937;6711;304881;31
2023/09/05 17:50:26;;;;;;;3.55;2.80;;;26.90;40.00;;;;;;20954;6711;275239;31
2023/09/05 17:52:52;;;;;;;2.17;2.07;;;27.20;40.50;;;;;;21164;6711;66530;31
2023/09/05 17:55:18;;;;;;;2.20;2.10;;;27.00;39.50;;;;;;21167;6711;66694;31
2023/09/05 17:57:45;;;;;;;2.60;2.40;;;26.80;39.70;;;;;;21161;6711;65645;31
2023/09/05 18:00:09;;;;;;;2.47;2.30;;;26.50;40.00;;;;;;21178;6711;65703;31
2023/09/05 18:02:35;;;;;;;2.70;2.50;;;26.20;41.00;;;;;;21004;6698;305075;31
2023/09/05 18:05:00;;;;;;;2.60;2.50;;;26.40;40.90;;;;;;20972;6711;278687;31
2023/09/05 18:07:26;;;;;;;2.47;2.37;;;26.70;40.40;;;;;;20967;6711;276553;31
2023/09/05 18:09:52;;;;;;;2.87;2.65;;;26.90;39.80;;;;;;20960;6711;275071;31
2023/09/05 18:12:17;;;;;;;3.22;2.65;;;27.10;38.70;;;;;;20960;6711;274489;31
2023/09/05 18:14:43;;;;;;;3.28;2.70;;;27.30;37.80;;;;;;20979;6711;277294;31
2023/09/05 18:17:08;;;;;;;3.20;2.97;;;27.30;37.10;;;;;;20967;6711;333278;31
2023/09/05 18:19:34;;;;;;;2.60;2.47;;;27.40;36.50;;;;;;21174;6711;66598;31
2023/09/05 18:22:00;;;;;;;2.72;2.60;;;27.00;36.80;;;;;;20967;6711;275038;31
2023/09/05 18:24:25;;;;;;;3.27;2.50;;;26.90;36.70;;;;;;21175;6711;67968;31
2023/09/05 18:26:51;;;;;;;3.37;3.10;;;26.70;37.00;;;;;;20965;6713;275192;31
2023/09/05 18:29:19;;;;;;;3.10;2.90;;;26.70;36.60;;;;;;21169;6711;66210;31